createdAt,value
2022-08-14T00:00:48.530Z,0.00
2022-08-14T00:01:54.412Z,0.00
2022-08-14T00:02:48.597Z,0.00
2022-08-14T00:03:48.515Z,0.00
2022-08-14T00:04:48.502Z,0.00
2022-08-14T00:05:48.695Z,0.00
2022-08-14T00:06:49.519Z,0.00
2022-08-14T00:07:48.495Z,0.00
2022-08-14T00:08:48.479Z,0.00
2022-08-14T00:10:01.856Z,0.00
2022-08-14T00:10:53.215Z,0.00
2022-08-14T00:11:48.453Z,0.00
2022-08-14T00:12:56.353Z,0.00
2022-08-14T00:13:52.726Z,0.00
2022-08-14T00:14:48.432Z,0.00
2022-08-14T00:15:48.531Z,0.00
2022-08-14T00:16:48.422Z,0.00
2022-08-14T00:17:53.416Z,0.00
2022-08-14T00:19:06.040Z,0.00
2022-08-14T00:19:49.424Z,0.00
2022-08-14T00:20:48.384Z,0.00
2022-08-14T00:21:49.938Z,0.00
2022-08-14T00:22:56.931Z,0.00
2022-08-14T00:23:53.954Z,0.00
2022-08-14T00:24:49.489Z,0.00
2022-08-14T00:25:53.727Z,0.00
2022-08-14T00:26:49.392Z,0.00
2022-08-14T00:27:49.137Z,0.00
2022-08-14T00:28:49.334Z,0.00
2022-08-14T00:29:48.335Z,0.00
2022-08-14T00:30:48.335Z,0.00
2022-08-14T00:31:48.312Z,0.00
2022-08-14T00:32:53.122Z,0.00
2022-08-14T00:33:51.595Z,0.00
2022-08-14T00:34:48.300Z,0.00
2022-08-14T00:36:36.866Z,0.00
2022-08-14T00:36:49.857Z,0.00
2022-08-14T00:37:48.266Z,0.00
2022-08-14T00:38:48.258Z,0.00
2022-08-14T00:39:48.343Z,0.00
2022-08-14T00:40:48.240Z,0.00
2022-08-14T00:41:48.250Z,0.00
2022-08-14T00:42:56.002Z,0.00
2022-08-14T00:43:49.226Z,0.00
2022-08-14T00:44:48.210Z,0.00
2022-08-14T00:45:51.609Z,0.00
2022-08-14T00:46:48.238Z,0.00
2022-08-14T00:47:48.189Z,0.00
2022-08-14T00:48:48.995Z,0.00
2022-08-14T00:49:48.180Z,0.00
2022-08-14T00:50:48.170Z,0.00
2022-08-14T00:51:48.297Z,0.00
2022-08-14T00:52:48.168Z,0.00
2022-08-14T00:53:48.148Z,0.00
2022-08-14T00:54:48.163Z,0.00
2022-08-14T00:55:48.128Z,0.00
2022-08-14T00:56:48.121Z,0.00
2022-08-14T00:57:48.128Z,0.00
2022-08-14T00:58:48.329Z,0.00
2022-08-14T00:59:48.121Z,0.00
2022-08-14T01:00:50.956Z,0.00
2022-08-14T01:01:48.176Z,0.00
2022-08-14T01:02:48.077Z,0.00
2022-08-14T01:03:52.702Z,0.00
2022-08-14T01:04:53.928Z,0.00
2022-08-14T01:05:51.632Z,0.00
2022-08-14T01:06:48.049Z,0.00
2022-08-14T01:07:54.164Z,0.00
2022-08-14T01:08:57.653Z,0.00
2022-08-14T01:09:48.030Z,0.00
2022-08-14T01:10:48.025Z,0.00
2022-08-14T01:11:57.305Z,0.00
2022-08-14T01:12:49.008Z,0.00
2022-08-14T01:13:55.814Z,0.00
2022-08-14T01:14:48.019Z,0.00
2022-08-14T01:15:57.879Z,0.00
2022-08-14T01:16:52.981Z,0.00
2022-08-14T01:17:49.916Z,0.00
2022-08-14T01:18:57.789Z,0.00
2022-08-14T01:19:49.444Z,0.00
2022-08-14T01:20:47.954Z,0.00
2022-08-14T01:21:52.728Z,0.00
2022-08-14T01:22:48.972Z,0.00
2022-08-14T01:23:47.928Z,0.00
2022-08-14T01:24:50.967Z,0.00
2022-08-14T01:25:47.914Z,0.00
2022-08-14T01:26:50.695Z,0.00
2022-08-14T01:27:53.869Z,0.00
2022-08-14T01:28:56.870Z,0.00
2022-08-14T01:29:58.650Z,0.00
2022-08-14T01:30:48.890Z,0.00
2022-08-14T01:31:50.311Z,0.00
2022-08-14T01:32:51.263Z,0.00
2022-08-14T01:34:00.496Z,0.00
2022-08-14T01:35:20.488Z,0.00
2022-08-14T01:36:04.941Z,0.00
2022-08-14T01:36:48.858Z,0.00
2022-08-14T01:37:54.760Z,0.00
2022-08-14T01:38:49.023Z,0.00
2022-08-14T01:39:47.945Z,0.00
2022-08-14T01:40:48.865Z,0.00
2022-08-14T01:41:47.797Z,0.00
2022-08-14T01:42:47.945Z,0.00
2022-08-14T01:43:56.103Z,0.00
2022-08-14T01:44:49.876Z,0.00
2022-08-14T01:45:49.170Z,0.00
2022-08-14T01:46:48.766Z,0.00
2022-08-14T01:47:48.769Z,0.00
2022-08-14T01:48:47.737Z,0.00
2022-08-14T01:50:01.273Z,0.00
2022-08-14T01:50:48.734Z,0.00
2022-08-14T01:51:47.714Z,0.00
2022-08-14T01:53:00.161Z,0.00
2022-08-14T01:53:50.436Z,0.00
2022-08-14T01:54:57.956Z,0.00
2022-08-14T01:55:48.680Z,0.00
2022-08-14T01:56:47.698Z,0.00
2022-08-14T01:57:49.550Z,0.00
2022-08-14T01:58:57.414Z,0.00
2022-08-14T01:59:48.690Z,0.00
2022-08-14T02:00:48.157Z,0.00
2022-08-14T02:01:58.066Z,0.00
2022-08-14T02:02:48.895Z,0.00
2022-08-14T02:03:49.873Z,0.00
2022-08-14T02:04:57.136Z,0.00
2022-08-14T02:05:48.618Z,0.00
2022-08-14T02:06:47.605Z,0.00
2022-08-14T02:07:55.709Z,0.00
2022-08-14T02:08:53.388Z,0.00
2022-08-14T02:09:55.660Z,0.00
2022-08-14T02:10:48.611Z,0.00
2022-08-14T02:11:47.584Z,0.00
2022-08-14T02:12:53.941Z,0.00
2022-08-14T02:13:50.637Z,0.00
2022-08-14T02:14:50.800Z,0.00
2022-08-14T02:15:50.099Z,0.00
2022-08-14T02:16:47.631Z,0.00
2022-08-14T02:17:47.541Z,0.00
2022-08-14T02:18:47.515Z,0.00
2022-08-14T02:19:47.510Z,0.00
2022-08-14T02:20:47.703Z,0.00
2022-08-14T02:21:50.412Z,0.00
2022-08-14T02:22:48.787Z,0.00
2022-08-14T02:23:47.483Z,0.00
2022-08-14T02:24:47.778Z,0.00
2022-08-14T02:25:54.405Z,0.00
2022-08-14T02:28:18.479Z,0.00
2022-08-14T02:28:23.366Z,0.00
2022-08-14T02:28:58.066Z,0.00
2022-08-14T02:29:59.227Z,0.00
2022-08-14T02:30:48.430Z,0.00
2022-08-14T02:31:47.413Z,0.00
2022-08-14T02:32:47.652Z,0.00
2022-08-14T02:33:47.434Z,0.00
2022-08-14T02:34:47.388Z,0.00
2022-08-14T02:35:52.838Z,0.00
2022-08-14T02:37:02.536Z,0.00
2022-08-14T02:37:49.293Z,0.00
2022-08-14T02:38:47.364Z,0.00
2022-08-14T02:39:47.400Z,0.00
2022-08-14T02:40:47.353Z,0.00
2022-08-14T02:41:52.720Z,0.00
2022-08-14T02:42:54.262Z,0.00
2022-08-14T02:43:48.710Z,0.00
2022-08-14T02:44:48.833Z,0.00
2022-08-14T02:45:47.719Z,0.00
2022-08-14T02:46:49.789Z,0.00
2022-08-14T02:47:47.363Z,0.00
2022-08-14T02:49:04.654Z,0.00
2022-08-14T02:49:54.695Z,0.00
2022-08-14T02:50:51.414Z,0.00
2022-08-14T02:51:47.273Z,0.00
2022-08-14T02:52:57.398Z,0.00
2022-08-14T02:53:48.280Z,0.00
2022-08-14T02:54:47.244Z,0.00
2022-08-14T02:55:47.270Z,0.00
2022-08-14T02:57:15.753Z,0.00
2022-08-14T02:57:57.872Z,0.00
2022-08-14T02:58:48.243Z,0.00
2022-08-14T02:59:47.239Z,0.00
2022-08-14T03:00:47.222Z,0.00
2022-08-14T03:01:50.331Z,0.00
2022-08-14T03:02:56.468Z,0.00
2022-08-14T03:03:48.178Z,0.00
2022-08-14T03:04:47.168Z,0.00
2022-08-14T03:05:47.194Z,0.00
2022-08-14T03:06:58.130Z,0.00
2022-08-14T03:07:48.252Z,0.00
2022-08-14T03:08:47.179Z,0.00
2022-08-14T03:10:27.723Z,0.00
2022-08-14T03:10:48.485Z,0.00
2022-08-14T03:11:47.163Z,0.00
2022-08-14T03:12:47.113Z,0.00
2022-08-14T03:13:47.121Z,0.00
2022-08-14T03:14:47.106Z,0.00
2022-08-14T03:15:47.083Z,0.00
2022-08-14T03:16:49.190Z,0.00
2022-08-14T03:17:56.989Z,0.00
2022-08-14T03:18:47.064Z,0.00
2022-08-14T03:19:48.073Z,0.00
2022-08-14T03:20:47.044Z,0.00
2022-08-14T03:21:47.059Z,0.00
2022-08-14T03:22:50.941Z,0.00
2022-08-14T03:23:47.031Z,0.00
2022-08-14T03:24:47.014Z,0.00
2022-08-14T03:25:47.015Z,0.00
2022-08-14T03:26:47.028Z,0.00
2022-08-14T03:27:48.025Z,0.00
2022-08-14T03:28:47.987Z,0.00
2022-08-14T03:29:46.996Z,0.00
2022-08-14T03:30:46.976Z,0.00
2022-08-14T03:31:46.968Z,0.00
2022-08-14T03:32:47.161Z,0.00
2022-08-14T03:33:51.750Z,0.00
2022-08-14T03:34:55.624Z,0.00
2022-08-14T03:35:59.832Z,0.00
2022-08-14T03:37:38.519Z,0.00
2022-08-14T03:39:13.278Z,0.00
2022-08-14T03:39:15.530Z,0.00
2022-08-14T03:39:47.983Z,0.00
2022-08-14T03:40:46.914Z,0.00
2022-08-14T03:41:46.895Z,0.00
2022-08-14T03:42:46.960Z,0.00
2022-08-14T03:43:46.874Z,0.00
2022-08-14T03:45:19.575Z,0.00
2022-08-14T03:45:48.706Z,0.00
2022-08-14T03:46:54.802Z,0.00
2022-08-14T03:47:58.356Z,0.00
2022-08-14T03:48:47.859Z,0.00
2022-08-14T03:49:49.689Z,0.00
2022-08-14T03:50:47.847Z,0.00
2022-08-14T03:51:46.822Z,0.00
2022-08-14T03:52:48.030Z,0.00
2022-08-14T03:53:47.805Z,0.00
2022-08-14T03:54:52.660Z,0.00
2022-08-14T03:55:47.848Z,0.00
2022-08-14T03:56:46.810Z,0.00
2022-08-14T03:57:46.770Z,0.00
2022-08-14T03:58:46.769Z,0.00
2022-08-14T03:59:46.762Z,0.00
2022-08-14T04:00:46.789Z,0.00
2022-08-14T04:01:57.820Z,0.00
2022-08-14T04:02:47.834Z,0.00
2022-08-14T04:03:46.739Z,0.00
2022-08-14T04:04:46.718Z,0.00
2022-08-14T04:05:48.949Z,0.00
2022-08-14T04:06:47.612Z,0.00
2022-08-14T04:08:00.233Z,0.00
2022-08-14T04:08:47.945Z,0.00
2022-08-14T04:09:46.682Z,0.00
2022-08-14T04:10:46.679Z,5.62
2022-08-14T04:11:46.672Z,5.62
2022-08-14T04:12:51.426Z,5.62
2022-08-14T04:13:47.645Z,5.62
2022-08-14T04:14:46.667Z,5.62
2022-08-14T04:16:01.498Z,5.62
2022-08-14T04:16:47.617Z,5.62
2022-08-14T04:17:46.625Z,5.62
2022-08-14T04:18:46.615Z,5.62
2022-08-14T04:19:46.618Z,5.62
2022-08-14T04:20:54.619Z,11.25
2022-08-14T04:22:02.104Z,11.25
2022-08-14T04:22:47.578Z,11.25
2022-08-14T04:23:49.048Z,11.25
2022-08-14T04:24:47.564Z,11.25
2022-08-14T04:25:46.577Z,11.25
2022-08-14T04:26:46.584Z,11.25
2022-08-14T04:28:01.652Z,11.25
2022-08-14T04:29:02.171Z,16.88
2022-08-14T04:29:47.537Z,16.88
2022-08-14T04:30:46.529Z,16.88
2022-08-14T04:33:00.160Z,16.88
2022-08-14T04:33:02.926Z,16.88
2022-08-14T04:33:47.637Z,22.50
2022-08-14T04:34:51.934Z,22.50
2022-08-14T04:35:55.570Z,22.50
2022-08-14T04:36:46.472Z,22.50
2022-08-14T04:37:46.488Z,22.50
2022-08-14T04:38:47.473Z,22.50
2022-08-14T04:39:47.017Z,28.12
2022-08-14T04:40:47.444Z,28.12
2022-08-14T04:41:46.440Z,28.12
2022-08-14T04:42:47.631Z,28.12
2022-08-14T04:43:47.437Z,28.12
2022-08-14T04:44:51.447Z,28.12
2022-08-14T04:45:51.205Z,33.75
2022-08-14T04:46:55.323Z,39.38
2022-08-14T04:47:46.679Z,39.38
2022-08-14T04:48:51.223Z,45.00
2022-08-14T04:49:57.604Z,45.00
2022-08-14T04:50:53.781Z,50.62
2022-08-14T04:51:55.527Z,56.25
2022-08-14T04:52:46.344Z,67.50
2022-08-14T04:53:47.337Z,73.12
2022-08-14T04:54:46.350Z,78.75
2022-08-14T04:55:46.322Z,95.62
2022-08-14T04:56:46.313Z,140.62
2022-08-14T04:57:46.310Z,174.38
2022-08-14T04:58:53.333Z,196.88
2022-08-14T04:59:46.294Z,213.75
2022-08-14T05:00:46.285Z,225.00
2022-08-14T05:01:49.891Z,236.25
2022-08-14T05:02:47.268Z,241.88
2022-08-14T05:03:46.265Z,253.12
2022-08-14T05:04:58.445Z,258.75
2022-08-14T05:05:47.264Z,264.38
2022-08-14T05:06:46.239Z,270.00
2022-08-14T05:07:54.670Z,275.62
2022-08-14T05:08:57.238Z,281.25
2022-08-14T05:09:48.041Z,281.25
2022-08-14T05:10:46.222Z,286.88
2022-08-14T05:11:47.200Z,298.12
2022-08-14T05:13:24.256Z,303.75
2022-08-14T05:14:45.304Z,320.62
2022-08-14T05:14:54.996Z,365.62
2022-08-14T05:15:47.953Z,489.38
2022-08-14T05:16:46.765Z,573.75
2022-08-14T05:17:57.056Z,540.00
2022-08-14T05:19:25.314Z,590.62
2022-08-14T05:21:04.772Z,613.12
2022-08-14T05:21:57.378Z,483.75
2022-08-14T05:21:58.151Z,545.62
2022-08-14T05:22:47.114Z,478.12
2022-08-14T05:23:46.142Z,461.25
2022-08-14T05:24:48.660Z,466.88
2022-08-14T05:25:46.100Z,450.00
2022-08-14T05:26:46.086Z,472.50
2022-08-14T05:27:46.107Z,528.75
2022-08-14T05:28:46.088Z,517.50
2022-08-14T05:29:46.057Z,478.12
2022-08-14T05:30:46.065Z,495.00
2022-08-14T05:31:46.052Z,506.25
2022-08-14T05:32:46.865Z,534.38
2022-08-14T05:33:46.065Z,601.88
2022-08-14T05:34:46.142Z,658.12
2022-08-14T05:35:46.649Z,714.38
2022-08-14T05:36:50.669Z,765.00
2022-08-14T05:37:47.005Z,776.25
2022-08-14T05:38:45.998Z,725.62
2022-08-14T05:39:46.030Z,652.50
2022-08-14T05:40:46.000Z,697.50
2022-08-14T05:41:53.076Z,635.62
2022-08-14T05:42:52.618Z,652.50
2022-08-14T05:43:45.968Z,691.88
2022-08-14T05:44:46.161Z,770.62
2022-08-14T05:45:45.965Z,714.38
2022-08-14T05:46:45.953Z,680.62
2022-08-14T05:47:45.939Z,736.88
2022-08-14T05:48:46.935Z,736.88
2022-08-14T05:49:45.931Z,759.38
2022-08-14T05:50:45.915Z,793.12
2022-08-14T05:51:45.935Z,776.25
2022-08-14T05:52:45.900Z,832.50
2022-08-14T05:54:10.000Z,849.38
2022-08-14T05:54:46.892Z,883.12
2022-08-14T05:55:45.881Z,905.62
2022-08-14T05:56:45.874Z,843.75
2022-08-14T05:57:45.917Z,877.50
2022-08-14T05:58:45.853Z,961.88
2022-08-14T05:59:45.853Z,928.12
2022-08-14T06:00:45.842Z,860.62
2022-08-14T06:01:45.881Z,877.50
2022-08-14T06:02:46.029Z,849.38
2022-08-14T06:03:45.845Z,905.62
2022-08-14T06:04:45.822Z,945.00
2022-08-14T06:05:45.818Z,871.88
2022-08-14T06:06:45.801Z,888.75
2022-08-14T06:07:45.799Z,855.00
2022-08-14T06:08:45.816Z,832.50
2022-08-14T06:09:52.161Z,866.25
2022-08-14T06:10:46.785Z,832.50
2022-08-14T06:11:45.774Z,916.88
2022-08-14T06:12:55.699Z,956.25
2022-08-14T06:13:46.792Z,849.38
2022-08-14T06:14:45.768Z,945.00
2022-08-14T06:15:45.743Z,939.38
2022-08-14T06:16:45.733Z,984.38
2022-08-14T06:17:46.167Z,1096.88
2022-08-14T06:18:45.726Z,1057.50
2022-08-14T06:19:45.743Z,1012.50
2022-08-14T06:20:45.706Z,990.00
2022-08-14T06:21:45.713Z,1096.88
2022-08-14T06:22:45.761Z,1018.12
2022-08-14T06:23:45.699Z,1063.12
2022-08-14T06:24:45.702Z,1181.25
2022-08-14T06:25:45.679Z,1096.88
2022-08-14T06:26:54.292Z,1113.75
2022-08-14T06:27:46.668Z,1226.25
2022-08-14T06:28:45.755Z,1248.75
2022-08-14T06:29:45.652Z,1237.50
2022-08-14T06:30:47.437Z,1068.75
2022-08-14T06:31:45.641Z,1046.25
2022-08-14T06:32:46.642Z,1282.50
2022-08-14T06:35:01.163Z,1333.12
2022-08-14T06:35:11.553Z,1051.88
2022-08-14T06:35:46.881Z,1063.12
2022-08-14T06:36:45.600Z,1231.88
2022-08-14T06:37:46.816Z,1085.62
2022-08-14T06:38:45.585Z,1158.75
2022-08-14T06:39:45.663Z,1203.75
2022-08-14T06:40:45.914Z,1141.88
2022-08-14T06:41:59.527Z,1040.62
2022-08-14T06:42:46.749Z,945.00
2022-08-14T06:43:45.564Z,1035.00
2022-08-14T06:44:45.584Z,1209.38
2022-08-14T06:45:50.400Z,1186.88
2022-08-14T06:46:49.377Z,1068.75
2022-08-14T06:47:45.534Z,1203.75
2022-08-14T06:48:45.517Z,1215.00
2022-08-14T06:49:56.509Z,1164.38
2022-08-14T06:50:46.541Z,1198.12
2022-08-14T06:51:45.509Z,1136.25
2022-08-14T06:52:50.045Z,1080.00
2022-08-14T06:53:45.484Z,1085.62
2022-08-14T06:54:45.566Z,1074.38
2022-08-14T06:55:58.026Z,1147.50
2022-08-14T06:56:54.520Z,978.75
2022-08-14T06:57:46.461Z,731.25
2022-08-14T06:58:45.458Z,556.88
2022-08-14T06:59:45.468Z,427.50
2022-08-14T07:00:45.437Z,309.38
2022-08-14T07:01:45.473Z,292.50
2022-08-14T07:02:45.587Z,292.50
2022-08-14T07:03:45.431Z,286.88
2022-08-14T07:04:45.412Z,281.25
2022-08-14T07:05:57.636Z,281.25
2022-08-14T07:06:47.795Z,281.25
2022-08-14T07:07:45.430Z,275.62
2022-08-14T07:08:45.379Z,275.62
2022-08-14T07:09:50.973Z,275.62
2022-08-14T07:10:46.367Z,275.62
2022-08-14T07:11:45.366Z,270.00
2022-08-14T07:13:02.188Z,270.00
2022-08-14T07:13:46.377Z,270.00
2022-08-14T07:14:45.363Z,270.00
2022-08-14T07:15:45.337Z,270.00
2022-08-14T07:16:45.345Z,270.00
2022-08-14T07:17:45.325Z,270.00
2022-08-14T07:18:45.347Z,264.38
2022-08-14T07:19:46.314Z,264.38
2022-08-14T07:20:45.296Z,264.38
2022-08-14T07:21:45.301Z,264.38
2022-08-14T07:22:56.002Z,264.38
2022-08-14T07:23:46.337Z,264.38
2022-08-14T07:24:46.285Z,264.38
2022-08-14T07:25:45.268Z,264.38
2022-08-14T07:26:45.262Z,264.38
2022-08-14T07:27:45.264Z,264.38
2022-08-14T07:28:45.253Z,264.38
2022-08-14T07:29:45.268Z,264.38
2022-08-14T07:30:51.135Z,264.38
2022-08-14T07:31:46.973Z,264.38
2022-08-14T07:32:45.434Z,264.38
2022-08-14T07:33:45.548Z,264.38
2022-08-14T07:34:45.244Z,264.38
2022-08-14T07:35:58.622Z,264.38
2022-08-14T07:36:53.636Z,264.38
2022-08-14T07:37:46.198Z,258.75
2022-08-14T07:38:45.181Z,258.75
2022-08-14T07:39:46.251Z,258.75
2022-08-14T07:40:45.261Z,258.75
2022-08-14T07:41:45.163Z,258.75
2022-08-14T07:42:45.359Z,258.75
2022-08-14T07:43:55.130Z,258.75
2022-08-14T07:44:46.558Z,258.75
2022-08-14T07:45:45.168Z,258.75
2022-08-14T07:46:46.153Z,258.75
2022-08-14T07:47:45.128Z,258.75
2022-08-14T07:48:45.117Z,258.75
2022-08-14T07:49:45.112Z,258.75
2022-08-14T07:50:45.423Z,258.75
2022-08-14T07:51:45.113Z,258.75
2022-08-14T07:52:45.161Z,253.12
2022-08-14T07:53:45.088Z,253.12
2022-08-14T07:54:45.077Z,253.12
2022-08-14T07:55:45.081Z,253.12
2022-08-14T07:56:48.859Z,253.12
2022-08-14T07:57:45.057Z,253.12
2022-08-14T07:58:51.345Z,253.12
2022-08-14T07:59:47.133Z,253.12
2022-08-14T08:00:45.034Z,253.12
2022-08-14T08:01:48.299Z,253.12
2022-08-14T08:02:45.182Z,253.12
2022-08-14T08:03:45.010Z,253.12
2022-08-14T08:04:45.012Z,253.12
2022-08-14T08:05:45.000Z,253.12
2022-08-14T08:06:44.994Z,247.50
2022-08-14T08:07:44.977Z,247.50
2022-08-14T08:08:44.993Z,247.50
2022-08-14T08:09:46.045Z,247.50
2022-08-14T08:11:01.813Z,247.50
2022-08-14T08:11:44.962Z,247.50
2022-08-14T08:12:46.144Z,247.50
2022-08-14T08:13:48.985Z,247.50
2022-08-14T08:14:56.686Z,241.88
2022-08-14T08:15:45.949Z,241.88
2022-08-14T08:16:44.929Z,241.88
2022-08-14T08:17:53.291Z,241.88
2022-08-14T08:18:44.914Z,241.88
2022-08-14T08:19:44.908Z,236.25
2022-08-14T08:20:44.916Z,236.25
2022-08-14T08:21:45.139Z,236.25
2022-08-14T08:22:48.138Z,241.88
2022-08-14T08:23:51.153Z,241.88
2022-08-14T08:24:45.870Z,236.25
2022-08-14T08:25:44.870Z,236.25
2022-08-14T08:26:44.871Z,236.25
2022-08-14T08:27:45.080Z,230.62
2022-08-14T08:28:44.839Z,230.62
2022-08-14T08:29:50.918Z,230.62
2022-08-14T08:30:49.258Z,230.62
2022-08-14T08:31:48.866Z,230.62
2022-08-14T08:32:46.080Z,230.62
2022-08-14T08:33:46.945Z,225.00
2022-08-14T08:34:44.885Z,225.00
2022-08-14T08:35:46.191Z,225.00
2022-08-14T08:36:46.453Z,225.00
2022-08-14T08:37:44.809Z,225.00
2022-08-14T08:39:18.097Z,225.00
2022-08-14T08:40:03.466Z,225.00
2022-08-14T08:40:45.787Z,225.00
2022-08-14T08:41:44.760Z,219.38
2022-08-14T08:42:45.051Z,219.38
2022-08-14T08:43:46.219Z,219.38
2022-08-14T08:44:44.736Z,219.38
2022-08-14T08:45:44.750Z,219.38
2022-08-14T08:46:44.721Z,219.38
2022-08-14T08:47:45.237Z,219.38
2022-08-14T08:48:52.267Z,219.38
2022-08-14T08:49:52.981Z,213.75
2022-08-14T08:50:44.706Z,213.75
2022-08-14T08:51:44.686Z,213.75
2022-08-14T08:52:46.791Z,213.75
2022-08-14T08:53:44.668Z,219.38
2022-08-14T08:54:44.683Z,213.75
2022-08-14T08:55:44.656Z,213.75
2022-08-14T08:56:44.829Z,213.75
2022-08-14T08:57:44.662Z,219.38
2022-08-14T08:58:44.631Z,225.00
2022-08-14T08:59:44.628Z,225.00
2022-08-14T09:00:44.656Z,219.38
2022-08-14T09:01:44.625Z,213.75
2022-08-14T09:02:44.752Z,225.00
2022-08-14T09:03:44.621Z,236.25
2022-08-14T09:04:45.316Z,230.62
2022-08-14T09:05:44.598Z,219.38
2022-08-14T09:07:01.148Z,219.38
2022-08-14T09:07:45.572Z,219.38
2022-08-14T09:08:44.567Z,213.75
2022-08-14T09:09:54.303Z,213.75
2022-08-14T09:10:45.548Z,213.75
2022-08-14T09:11:44.548Z,208.12
2022-08-14T09:12:46.770Z,208.12
2022-08-14T09:13:45.560Z,208.12
2022-08-14T09:14:44.529Z,208.12
2022-08-14T09:15:44.530Z,208.12
2022-08-14T09:16:48.238Z,208.12
2022-08-14T09:17:46.226Z,213.75
2022-08-14T09:18:44.501Z,213.75
2022-08-14T09:19:44.509Z,213.75
2022-08-14T09:20:44.491Z,213.75
2022-08-14T09:21:44.514Z,213.75
2022-08-14T09:22:48.251Z,213.75
2022-08-14T09:24:28.949Z,213.75
2022-08-14T09:24:45.744Z,213.75
2022-08-14T09:25:59.784Z,213.75
2022-08-14T09:26:48.853Z,213.75
2022-08-14T09:27:44.442Z,219.38
2022-08-14T09:28:44.437Z,219.38
2022-08-14T09:29:44.450Z,219.38
2022-08-14T09:30:44.420Z,219.38
2022-08-14T09:31:53.358Z,219.38
2022-08-14T09:32:58.883Z,213.75
2022-08-14T09:33:56.679Z,213.75
2022-08-14T09:34:58.223Z,219.38
2022-08-14T09:35:44.392Z,219.38
2022-08-14T09:36:44.382Z,225.00
2022-08-14T09:37:44.380Z,219.38
2022-08-14T09:38:44.395Z,225.00
2022-08-14T09:39:44.378Z,225.00
2022-08-14T09:40:44.372Z,151.88
2022-08-14T09:42:20.410Z,225.00
2022-08-14T09:42:50.091Z,225.00
2022-08-14T09:43:45.334Z,225.00
2022-08-14T09:44:45.777Z,146.25
2022-08-14T09:45:52.882Z,225.00
2022-08-14T09:46:45.345Z,225.00
2022-08-14T09:47:44.317Z,219.38
2022-08-14T09:48:44.292Z,241.88
2022-08-14T09:49:52.140Z,236.25
2022-08-14T09:50:45.287Z,236.25
2022-08-14T09:51:44.966Z,230.62
2022-08-14T09:52:46.714Z,225.00
2022-08-14T09:54:17.847Z,247.50
2022-08-14T09:54:45.255Z,236.25
2022-08-14T09:55:44.263Z,236.25
2022-08-14T09:56:44.242Z,236.25
2022-08-14T09:57:44.322Z,168.75
2022-08-14T09:58:44.227Z,208.12
2022-08-14T09:59:44.257Z,191.25
2022-08-14T10:00:44.243Z,146.25
2022-08-14T10:01:46.055Z,146.25
2022-08-14T10:02:45.733Z,146.25
2022-08-14T10:03:44.194Z,151.88
2022-08-14T10:04:46.093Z,163.12
2022-08-14T10:05:45.253Z,230.62
2022-08-14T10:06:44.171Z,225.00
2022-08-14T10:07:47.556Z,213.75
2022-08-14T10:08:44.448Z,135.00
2022-08-14T10:09:44.164Z,174.38
2022-08-14T10:10:45.142Z,129.38
2022-08-14T10:11:45.851Z,129.38
2022-08-14T10:12:44.881Z,135.00
2022-08-14T10:13:53.191Z,151.88
2022-08-14T10:14:45.128Z,225.00
2022-08-14T10:15:44.110Z,236.25
2022-08-14T10:16:44.108Z,225.00
2022-08-14T10:17:44.117Z,225.00
2022-08-14T10:18:44.092Z,219.38
2022-08-14T10:19:44.079Z,146.25
2022-08-14T10:20:47.021Z,213.75
2022-08-14T10:23:13.115Z,202.50
2022-08-14T10:23:13.414Z,174.38
2022-08-14T10:23:45.058Z,225.00
2022-08-14T10:24:44.044Z,219.38
2022-08-14T10:25:44.041Z,213.75
2022-08-14T10:26:44.057Z,219.38
2022-08-14T10:27:44.053Z,219.38
2022-08-14T10:29:17.769Z,140.62
2022-08-14T10:29:45.017Z,191.25
2022-08-14T10:30:44.005Z,208.12
2022-08-14T10:31:45.266Z,202.50
2022-08-14T10:32:51.225Z,202.50
2022-08-14T10:33:49.142Z,208.12
2022-08-14T10:34:43.992Z,196.88
2022-08-14T10:35:47.997Z,180.00
2022-08-14T10:36:47.932Z,202.50
2022-08-14T10:37:44.230Z,135.00
2022-08-14T10:38:43.972Z,135.00
2022-08-14T10:40:01.966Z,151.88
2022-08-14T10:40:52.246Z,219.38
2022-08-14T10:41:48.448Z,219.38
2022-08-14T10:42:45.113Z,168.75
2022-08-14T10:43:43.934Z,213.75
2022-08-14T10:44:43.923Z,168.75
2022-08-14T10:45:46.512Z,168.75
2022-08-14T10:47:38.992Z,208.12
2022-08-14T10:48:07.612Z,202.50
2022-08-14T10:48:45.895Z,129.38
2022-08-14T10:49:43.875Z,185.62
2022-08-14T10:50:43.856Z,191.25
2022-08-14T10:51:43.862Z,191.25
2022-08-14T10:52:43.937Z,191.25
2022-08-14T10:53:43.885Z,191.25
2022-08-14T10:54:43.832Z,191.25
2022-08-14T10:55:45.423Z,196.88
2022-08-14T10:56:43.849Z,196.88
2022-08-14T10:57:43.828Z,196.88
2022-08-14T10:58:43.814Z,191.25
2022-08-14T10:59:43.808Z,185.62
2022-08-14T11:00:47.132Z,185.62
2022-08-14T11:01:43.791Z,185.62
2022-08-14T11:02:50.294Z,185.62
2022-08-14T11:03:55.685Z,185.62
2022-08-14T11:04:43.822Z,123.75
2022-08-14T11:05:43.799Z,174.38
2022-08-14T11:06:43.758Z,185.62
2022-08-14T11:07:43.752Z,180.00
2022-08-14T11:08:45.590Z,180.00
2022-08-14T11:09:43.748Z,180.00
2022-08-14T11:10:43.756Z,174.38
2022-08-14T11:11:43.729Z,174.38
2022-08-14T11:12:43.726Z,174.38
2022-08-14T11:13:43.728Z,174.38
2022-08-14T11:14:43.710Z,123.75
2022-08-14T11:15:43.702Z,180.00
2022-08-14T11:16:53.230Z,185.62
2022-08-14T11:17:45.934Z,151.88
2022-08-14T11:18:43.704Z,174.38
2022-08-14T11:19:43.674Z,168.75
2022-08-14T11:20:44.682Z,163.12
2022-08-14T11:21:45.819Z,180.00
2022-08-14T11:23:03.301Z,146.25
2022-08-14T11:23:44.644Z,118.12
2022-08-14T11:24:54.092Z,112.50
2022-08-14T11:25:53.264Z,112.50
2022-08-14T11:26:43.638Z,112.50
2022-08-14T11:27:43.655Z,118.12
2022-08-14T11:28:48.613Z,118.12
2022-08-14T11:29:43.615Z,118.12
2022-08-14T11:30:51.714Z,118.12
2022-08-14T11:31:43.602Z,129.38
2022-08-14T11:32:43.592Z,180.00
2022-08-14T11:33:43.603Z,112.50
2022-08-14T11:34:43.574Z,174.38
2022-08-14T11:35:47.697Z,202.50
2022-08-14T11:37:09.546Z,196.88
2022-08-14T11:37:44.561Z,191.25
2022-08-14T11:38:44.976Z,196.88
2022-08-14T11:39:45.493Z,196.88
2022-08-14T11:40:43.531Z,202.50
2022-08-14T11:41:46.680Z,202.50
2022-08-14T11:42:56.759Z,129.38
2022-08-14T11:43:55.853Z,118.12
2022-08-14T11:44:46.589Z,123.75
2022-08-14T11:45:43.506Z,112.50
2022-08-14T11:46:43.498Z,129.38
2022-08-14T11:47:43.988Z,196.88
2022-08-14T11:49:01.877Z,112.50
2022-08-14T11:49:44.499Z,118.12
2022-08-14T11:50:43.537Z,118.12
2022-08-14T11:51:53.009Z,129.38
2022-08-14T11:52:44.471Z,118.12
2022-08-14T11:53:43.454Z,112.50
2022-08-14T11:54:43.441Z,112.50
2022-08-14T11:55:43.475Z,129.38
2022-08-14T11:56:43.419Z,135.00
2022-08-14T11:57:43.436Z,112.50
2022-08-14T11:58:44.407Z,180.00
2022-08-14T11:59:44.160Z,129.38
2022-08-14T12:00:46.243Z,106.88
2022-08-14T12:01:43.412Z,106.88
2022-08-14T12:03:03.175Z,106.88
2022-08-14T12:03:46.471Z,112.50
2022-08-14T12:04:44.431Z,191.25
2022-08-14T12:05:43.374Z,185.62
2022-08-14T12:06:43.384Z,185.62
2022-08-14T12:07:48.296Z,185.62
2022-08-14T12:08:43.373Z,180.00
2022-08-14T12:09:43.378Z,180.00
2022-08-14T12:10:43.643Z,180.00
2022-08-14T12:11:47.679Z,180.00
2022-08-14T12:12:44.325Z,174.38
2022-08-14T12:13:44.256Z,174.38
2022-08-14T12:14:44.402Z,174.38
2022-08-14T12:15:44.709Z,174.38
2022-08-14T12:16:43.296Z,174.38
2022-08-14T12:17:47.602Z,168.75
2022-08-14T12:18:43.277Z,168.75
2022-08-14T12:19:43.296Z,140.62
2022-08-14T12:20:45.866Z,168.75
2022-08-14T12:21:48.160Z,163.12
2022-08-14T12:22:44.379Z,163.12
2022-08-14T12:23:43.259Z,163.12
2022-08-14T12:24:43.245Z,157.50
2022-08-14T12:25:43.254Z,157.50
2022-08-14T12:26:43.249Z,151.88
2022-08-14T12:27:52.418Z,106.88
2022-08-14T12:29:00.205Z,101.25
2022-08-14T12:29:44.230Z,95.62
2022-08-14T12:30:43.806Z,95.62
2022-08-14T12:31:44.841Z,95.62
2022-08-14T12:32:43.202Z,151.88
2022-08-14T12:33:46.979Z,95.62
2022-08-14T12:34:45.151Z,95.62
2022-08-14T12:35:43.193Z,135.00
2022-08-14T12:36:43.168Z,146.25
2022-08-14T12:37:43.153Z,151.88
2022-08-14T12:38:43.768Z,95.62
2022-08-14T12:39:43.193Z,95.62
2022-08-14T12:40:43.136Z,95.62
2022-08-14T12:41:43.143Z,95.62
2022-08-14T12:42:52.570Z,95.62
2022-08-14T12:43:44.125Z,101.25
2022-08-14T12:44:43.103Z,101.25
2022-08-14T12:45:43.108Z,101.25